首页
METAR-TAF:

METAR-TAF

机场 :

波特兰国际机场

波特蘭, 俄勒冈州, 美国

纬度: 45-35-27N, 经度: 122-36-01W, 海拔: 8米

当前天气观测

该预报发布于31分钟前的21:53 UTC
风速11节,风向东南
温度 7°C
湿度 93%
气压 1016 hPa
能見度: 16.1公里
少量云层高于3900英尺
多云层高于5000英尺
阴天层高于6000英尺
小雨

METAR: KPDX 112153Z 13011KT 10SM -RA FEW039 BKN050 OVC060 07/06 A2999 RMK AO2 SLP156 P0003 T00720061

时间: 14:24 (22:24 UTC)

预报

该预报发布于2小时和23分钟前的20:01 UTC
预报有效从11日的 20点(UTC)到 12日的 18点(UTC)
风速11节,风向东转东南
能見度: 10公里
多云层高于4500英尺
多云层高于6000英尺
阴天层高于11000英尺
从 11日的 2100点(UTC)
风速11节,风向东南
能見度: 10公里
阴天层高于3000英尺
短暂存在
从 12日的 01点(UTC)到 12日的 03点(UTC)
能見度: 3.2公里
阴天层高于1500英尺
小雨
从 12日的 0300点(UTC)
风速11节,风向南转南东
能見度: 8.0公里
阴天层高于1600英尺
从 12日的 0700点(UTC)
风速10节,风向
能見度: 10公里
阴天层高于3500英尺
小雨
从 12日的 1300点(UTC)
风速8节,风向南转西南
能見度: 10公里
阴天层高于4000英尺
小雨

TAF: KPDX 112001Z 1120/1218 11011KT P6SM BKN045 BKN060 OVC110 FM112100 13011KT P6SM OVC030 TEMPO 1201/1203 2SM -RA OVC015 FM120300 15011KT 5SM RA OVC016 FM120700 19010KT P6SM -RA OVC035 FM121300 20008KT P6SM -RA OVC040

超过4000个机场的气象观测和天气预报(METAR&TAF报告)。

可查询的气象台以黄色和红色小点在地图上表示。

将鼠标移到小点上方,可查看气象台名称。

然后点击查看天气观测和预报。

如需切换地图:点击带黑十字的绿色按钮放大地图;点击带横线的绿色按钮缩小地图;或者点击绿色箭头查看邻近地区的地图。


METAR-TAF: